Time;durP1;ratioP1;P1;durP2;ratioP2;P2;SDS_P1;SDS_P2;PMS_P1;PMS_P2;Temp;Humidity;BMP_temperature;BMP_pressure;BME280_temperature;BME280_humidity;BME280_pressure;Samples;Min_cycle;Max_cycle;Signal;HPM_P1;HPM_P2
2022/04/05 00:00:04;;;;;;;11.80;6.90;;;;;;;-0.98;66.05;98889.48;109381;1276;22251;-60
2022/04/05 00:02:33;;;;;;;15.20;7.20;;;;;;;-0.96;65.99;98891.35;109251;1276;139006;-60
2022/04/05 00:07:37;;;;;;;11.50;7.40;;;;;;;-0.98;65.84;98886.40;101554;1311;546088;-60
2022/04/05 00:10:06;;;;;;;11.00;6.70;;;;;;;-1.02;65.91;98883.73;108002;1289;23339;-59
2022/04/05 00:12:35;;;;;;;13.40;6.90;;;;;;;-1.02;65.87;98884.11;108004;1289;22455;-59
2022/04/05 00:15:05;;;;;;;14.50;8.10;;;;;;;-1.02;65.81;98884.96;107554;1290;136641;-59
2022/04/05 00:17:33;;;;;;;17.00;8.00;;;;;;;-1.01;65.75;98882.20;108056;1287;22404;-59
2022/04/05 00:20:01;;;;;;;10.40;6.80;;;;;;;-1.02;65.73;98874.26;107828;1288;153739;-60
2022/04/05 00:22:30;;;;;;;12.90;7.40;;;;;;;-1.03;65.65;98872.57;108349;1285;22390;-59
2022/04/05 00:24:58;;;;;;;11.60;6.90;;;;;;;-1.06;65.63;98871.23;108225;1286;137907;-59
2022/04/05 00:27:27;;;;;;;8.50;6.30;;;;;;;-1.08;65.44;98870.81;108298;1285;23504;-59
2022/04/05 00:29:55;;;;;;;13.00;7.80;;;;;;;-1.11;65.53;98869.33;108297;1287;22506;-60
2022/04/05 00:32:23;;;;;;;10.60;6.70;;;;;;;-1.14;65.61;98860.46;108214;1285;137688;-59
2022/04/05 00:34:51;;;;;;;9.80;6.80;;;;;;;-1.16;65.66;98858.41;108299;1286;22432;-59
2022/04/05 00:37:20;;;;;;;9.80;6.20;;;;;;;-1.17;65.54;98856.89;108164;1286;138907;-59
2022/04/05 00:39:50;;;;;;;12.30;6.80;;;;;;;-1.18;65.56;98856.80;108276;1285;23082;-60
2022/04/05 00:42:18;;;;;;;9.90;6.30;;;;;;;-1.18;65.56;98854.13;108239;1287;22459;-60
2022/04/05 00:44:47;;;;;;;11.00;6.70;;;;;;;-1.18;65.53;98849.98;108175;1286;137131;-59
2022/04/05 00:47:15;;;;;;;11.50;7.50;;;;;;;-1.19;65.47;98845.33;108265;1285;23172;-59
2022/04/05 00:49:45;;;;;;;10.70;6.20;;;;;;;-1.21;65.44;98844.29;108144;1287;137339;-59
2022/04/05 00:52:14;;;;;;;15.00;7.00;;;;;;;-1.21;65.32;98838.48;108279;1286;22438;-60
2022/04/05 00:54:43;;;;;;;10.40;6.40;;;;;;;-1.21;65.46;98833.67;108250;1286;22493;-59
2022/04/05 00:57:16;;;;;;;11.00;6.70;;;;;;;-1.22;65.41;98828.91;108031;1286;137189;-60
2022/04/05 00:59:46;;;;;;;11.80;6.20;;;;;;;-1.23;65.35;98831.69;108260;1286;22907;-60
2022/04/05 01:02:17;;;;;;;11.00;6.20;;;;;;;-1.23;65.29;98827.17;108099;1287;137863;-59
2022/04/05 01:04:47;;;;;;;10.10;5.30;;;;;;;-1.24;65.39;98822.64;108247;1286;22614;-59
2022/04/05 01:07:21;;;;;;;10.90;5.20;;;;;;;-1.25;65.29;98822.72;108124;1286;138256;-59
2022/04/05 01:09:53;;;;;;;7.80;5.60;;;;;;;-1.25;65.16;98819.91;108231;1286;22411;-59
2022/04/05 01:12:26;;;;;;;9.30;6.30;;;;;;;-1.25;65.16;98815.15;108229;1287;22440;-59
2022/04/05 01:14:54;;;;;;;9.30;6.10;;;;;;;-1.25;65.03;98810.76;108132;1286;137497;-60
2022/04/05 01:17:22;;;;;;;10.50;5.50;;;;;;;-1.23;65.01;98809.48;104277;1287;25783;-59
2022/04/05 01:19:52;;;;;;;9.80;6.00;;;;;;;-1.22;64.94;98806.54;108090;1286;136977;-59
2022/04/05 01:22:20;;;;;;;11.40;7.00;;;;;;;-1.21;64.85;98804.11;108252;1286;22409;-59
2022/04/05 01:24:48;;;;;;;10.10;6.40;;;;;;;-1.21;64.80;98798.16;108248;1286;23047;-59
2022/04/05 01:27:18;;;;;;;10.20;6.90;;;;;;;-1.21;64.62;98793.59;108115;1286;137450;-60
2022/04/05 01:29:47;;;;;;;12.90;6.80;;;;;;;-1.23;64.72;98786.96;108226;1287;22468;-60
2022/04/05 01:32:16;;;;;;;9.50;6.30;;;;;;;-1.23;64.56;98787.50;108128;1286;138129;-59
2022/04/05 01:34:44;;;;;;;11.70;6.50;;;;;;;-1.24;64.66;98782.48;108213;1286;22470;-60
2022/04/05 01:37:12;;;;;;;11.30;6.50;;;;;;;-1.24;64.85;98780.71;108109;1287;138405;-59
2022/04/05 01:39:41;;;;;;;13.70;6.60;;;;;;;-1.24;64.69;98778.58;108217;1286;22419;-60
2022/04/05 01:42:14;;;;;;;9.80;5.80;;;;;;;-1.24;64.45;98776.88;108237;1286;22614;-59
2022/04/05 01:44:43;;;;;;;9.70;6.30;;;;;;;-1.25;64.44;98774.58;108050;1287;137534;-60
2022/04/05 01:47:12;;;;;;;11.60;6.30;;;;;;;-1.25;64.32;98771.95;108254;1286;22449;-60
2022/04/05 01:49:41;;;;;;;10.60;6.00;;;;;;;-1.25;64.42;98765.82;108152;1286;138131;-60
2022/04/05 01:52:10;;;;;;;12.60;6.90;;;;;;;-1.26;64.46;98764.42;108255;1286;22414;-59
2022/04/05 01:54:39;;;;;;;10.30;6.60;;;;;;;-1.25;64.36;98757.27;108258;1286;23218;-60
2022/04/05 01:57:07;;;;;;;13.70;7.40;;;;;;;-1.27;64.34;98760.09;108103;1285;137705;-60
2022/04/05 01:59:37;;;;;;;11.60;6.10;;;;;;;-1.26;64.42;98755.86;108239;1286;23333;-59
2022/04/05 02:02:06;;;;;;;11.50;5.40;;;;;;;-1.24;64.27;98753.20;108153;1286;139303;-59
2022/04/05 02:04:34;;;;;;;11.60;6.70;;;;;;;-1.24;64.22;98751.73;108247;1287;22413;-59
2022/04/05 02:07:16;;;;;;;10.80;6.40;;;;;;;-1.25;64.28;98751.96;108223;1284;138537;-59
2022/04/05 02:09:47;;;;;;;11.00;6.40;;;;;;;-1.26;64.24;98750.23;108357;1285;23133;-60
2022/04/05 02:12:16;;;;;;;10.00;6.10;;;;;;;-1.27;64.25;98748.74;108344;1285;22460;-60
2022/04/05 02:15:24;;;;;;;9.40;5.70;;;;;;;-1.28;64.02;98745.66;107553;1287;138546;-59
2022/04/05 02:18:05;;;;;;;10.70;5.90;;;;;;;-1.30;63.92;98743.04;103898;1285;24257;-59
2022/04/05 02:20:33;;;;;;;11.00;6.40;;;;;;;-1.30;63.99;98744.52;108131;1286;137788;-59
2022/04/05 02:23:02;;;;;;;14.70;6.70;;;;;;;-1.30;63.93;98738.52;108334;1285;22277;-59
2022/04/05 02:25:40;;;;;;;8.70;6.10;;;;;;;-1.30;63.92;98734.58;108048;1286;138080;-59
2022/04/05 02:28:09;;;;;;;8.10;5.90;;;;;;;-1.30;63.82;98735.32;108727;1281;23270;-60
2022/04/05 02:30:45;;;;;;;7.80;5.10;;;;;;;-1.31;63.65;98728.45;108817;1281;22549;-59
2022/04/05 02:33:14;;;;;;;9.30;5.40;;;;;;;-1.30;63.36;98724.70;108600;1281;137274;-59
2022/04/05 02:35:43;;;;;;;8.30;4.80;;;;;;;-1.28;63.53;98717.91;108573;1281;23336;-60
2022/04/05 02:38:11;;;;;;;9.60;5.70;;;;;;;-1.26;63.36;98716.19;108608;1281;139546;-59
2022/04/05 02:40:43;;;;;;;11.70;6.00;;;;;;;-1.24;63.30;98711.30;108777;1281;23207;-59
2022/04/05 02:43:13;;;;;;;8.50;5.50;;;;;;;-1.22;63.26;98706.17;108622;1281;138756;-60
2022/04/05 02:45:42;;;;;;;9.50;5.50;;;;;;;-1.19;63.06;98714.16;108810;1279;22444;-59
2022/04/05 02:48:11;;;;;;;9.40;6.00;;;;;;;-1.16;63.08;98707.92;108719;1281;22456;-60
2022/04/05 02:50:41;;;;;;;9.80;5.10;;;;;;;-1.15;63.07;98697.64;108684;1280;136817;-59
2022/04/05 02:53:09;;;;;;;10.70;6.70;;;;;;;-1.11;62.96;98695.95;108752;1281;23072;-59
2022/04/05 02:55:38;;;;;;;11.70;6.20;;;;;;;-1.08;63.00;98693.45;108722;1280;137526;-59
2022/04/05 02:58:06;;;;;;;9.60;6.50;;;;;;;-1.05;63.08;98689.52;108739;1281;22441;-60
2022/04/05 03:00:36;;;;;;;13.00;6.90;;;;;;;-1.01;63.01;98686.77;108781;1281;22213;-59
2022/04/05 03:03:09;;;;;;;11.00;7.40;;;;;;;-0.99;63.16;98685.22;108707;1281;138693;-60
2022/04/05 03:05:41;;;;;;;10.70;6.60;;;;;;;-0.98;63.24;98681.07;108764;1281;22484;-59
2022/04/05 03:08:11;;;;;;;11.50;6.50;;;;;;;-0.98;63.07;98676.46;108728;1281;137839;-60
2022/04/05 03:10:42;;;;;;;11.80;7.30;;;;;;;-0.98;63.39;98670.42;108602;1282;22427;-60
2022/04/05 03:13:12;;;;;;;10.20;5.90;;;;;;;-0.98;63.36;98667.75;108668;1281;138453;-60
2022/04/05 03:15:41;;;;;;;12.50;8.20;;;;;;;-0.97;63.39;98670.05;108765;1281;23220;-59
2022/04/05 03:18:11;;;;;;;10.70;6.70;;;;;;;-0.97;63.48;98667.91;108747;1281;22461;-59
2022/04/05 03:20:39;;;;;;;10.90;6.50;;;;;;;-0.96;64.12;98667.83;108826;1279;139033;-59
2022/04/05 03:23:08;;;;;;;12.80;7.50;;;;;;;-0.97;64.00;98662.77;108872;1281;23044;-59
2022/04/05 03:25:50;;;;;;;13.30;7.90;;;;;;;-0.97;64.36;98658.13;108787;1280;137619;-60
2022/04/05 03:28:20;;;;;;;10.00;7.30;;;;;;;-0.97;64.28;98660.88;108754;1281;22453;-59
2022/04/05 03:30:49;;;;;;;11.60;7.20;;;;;;;-0.98;64.54;98650.67;108740;1281;22395;-59
2022/04/05 03:33:18;;;;;;;13.00;7.90;;;;;;;-0.98;64.46;98650.55;108745;1281;137595;-60
2022/04/05 03:35:47;;;;;;;14.40;7.10;;;;;;;-0.97;64.61;98644.35;108773;1281;23349;-59
2022/04/05 03:38:15;;;;;;;14.50;6.80;;;;;;;-0.96;64.86;98649.29;108697;1281;138258;-60
2022/04/05 03:40:44;;;;;;;11.10;7.40;;;;;;;-0.96;65.01;98642.34;108922;1281;22432;-59
2022/04/05 03:43:13;;;;;;;14.00;8.60;;;;;;;-0.94;65.34;98643.53;108782;1280;139469;-59
2022/04/05 03:45:47;;;;;;;11.80;7.60;;;;;;;-0.92;65.42;98638.73;108798;1281;23045;-59
2022/04/05 03:48:17;;;;;;;12.50;7.00;;;;;;;-0.88;65.42;98638.98;108738;1281;23412;-59
2022/04/05 03:50:46;;;;;;;13.30;8.10;;;;;;;-0.84;65.56;98636.11;108748;1280;137860;-60
2022/04/05 03:53:17;;;;;;;11.80;7.60;;;;;;;-0.81;65.60;98633.65;108864;1281;22446;-59
2022/04/05 03:55:46;;;;;;;11.90;7.40;;;;;;;-0.77;65.93;98630.20;107548;1281;138436;-59
2022/04/05 03:58:14;;;;;;;11.60;8.30;;;;;;;-0.74;66.02;98631.11;104541;1281;24003;-61
2022/04/05 04:00:44;;;;;;;14.60;8.80;;;;;;;-0.71;66.07;98625.77;108880;1281;23445;-59
2022/04/05 04:03:16;;;;;;;14.90;8.90;;;;;;;-0.68;66.28;98622.48;108636;1281;137721;-59
2022/04/05 04:05:45;;;;;;;12.60;8.00;;;;;;;-0.63;66.40;98627.39;108739;1280;22492;-59
2022/04/05 04:08:13;;;;;;;14.80;9.00;;;;;;;-0.60;66.32;98624.02;108543;1281;138449;-59
2022/04/05 04:11:03;;;;;;;12.30;8.40;;;;;;;-0.55;66.35;98622.58;108683;1281;22469;-59
2022/04/05 04:13:33;;;;;;;12.00;7.60;;;;;;;-0.49;66.64;98620.24;108660;1280;139483;-61
2022/04/05 04:16:04;;;;;;;11.80;8.00;;;;;;;-0.44;66.43;98614.34;108690;1281;22517;-59
2022/04/05 04:18:35;;;;;;;11.70;7.80;;;;;;;-0.39;66.38;98611.89;108942;1280;22540;-59
2022/04/05 04:21:23;;;;;;;12.20;8.40;;;;;;;-0.35;66.61;98605.96;108590;1281;139544;-60
2022/04/05 04:23:53;;;;;;;14.40;9.30;;;;;;;-0.32;66.52;98606.61;108689;1281;22543;-60
2022/04/05 04:26:22;;;;;;;14.50;8.80;;;;;;;-0.26;66.52;98604.80;108577;1281;138349;-59
2022/04/05 04:28:53;;;;;;;15.50;9.80;;;;;;;-0.23;66.73;98597.97;108677;1281;22448;-59
2022/04/05 04:31:21;;;;;;;19.40;10.00;;;;;;;-0.18;66.58;98602.04;108667;1281;137713;-60
2022/04/05 04:33:50;;;;;;;15.90;10.00;;;;;;;-0.16;66.39;98596.11;108788;1280;22442;-60
2022/04/05 04:36:18;;;;;;;16.50;9.70;;;;;;;-0.15;66.70;98597.02;108789;1279;22469;-60
2022/04/05 04:38:48;;;;;;;16.30;10.10;;;;;;;-0.14;66.61;98596.98;108688;1281;137306;-60
2022/04/05 04:41:17;;;;;;;16.10;9.70;;;;;;;-0.10;66.72;98592.67;108788;1281;23304;-60
2022/04/05 04:43:46;;;;;;;18.70;9.90;;;;;;;-0.05;66.75;98593.50;108672;1281;137952;-60
2022/04/05 04:46:14;;;;;;;16.30;10.20;;;;;;;-0.01;66.69;98596.73;108759;1280;23589;-60
2022/04/05 04:48:43;;;;;;;15.70;10.60;;;;;;;0.05;66.53;98595.66;108791;1279;22441;-60
2022/04/05 04:51:12;;;;;;;17.50;9.80;;;;;;;0.10;66.85;98598.30;108679;1281;138491;-60
2022/04/05 04:53:40;;;;;;;15.70;10.20;;;;;;;0.15;66.71;98593.95;108834;1281;22549;-60
2022/04/05 04:56:09;;;;;;;15.80;9.60;;;;;;;0.24;66.78;98592.78;108693;1281;138116;-60
2022/04/05 04:58:38;;;;;;;14.60;9.50;;;;;;;0.34;66.91;98593.13;108768;1280;22465;-60
2022/04/05 05:01:06;;;;;;;13.10;9.00;;;;;;;0.45;66.91;98594.05;108683;1280;140080;-59
2022/04/05 05:03:34;;;;;;;13.90;9.00;;;;;;;0.59;66.65;98595.94;108777;1281;22565;-60
2022/04/05 05:06:03;;;;;;;16.10;9.30;;;;;;;0.73;66.37;98589.77;108843;1280;23252;-59
2022/04/05 05:08:32;;;;;;;17.70;10.00;;;;;;;0.86;66.16;98585.92;108785;1279;137767;-60
2022/04/05 05:11:00;;;;;;;22.30;9.40;;;;;;;0.98;66.30;98584.88;108915;1281;22536;-60
2022/04/05 05:13:31;;;;;;;14.20;9.10;;;;;;;1.09;65.55;98587.51;108724;1280;139772;-60
2022/04/05 05:15:59;;;;;;;14.60;9.50;;;;;;;1.16;65.58;98585.70;109019;1280;22538;-60
2022/04/05 05:18:28;;;;;;;14.60;10.10;;;;;;;1.21;65.27;98582.23;108985;1280;22292;-60
2022/04/05 05:20:56;;;;;;;15.80;9.50;;;;;;;1.27;64.78;98583.42;108682;1280;138123;-60
2022/04/05 05:23:44;;;;;;;16.70;9.80;;;;;;;1.33;64.73;98582.85;109023;1279;22489;-60
2022/04/05 05:26:13;;;;;;;16.70;10.70;;;;;;;1.37;64.66;98581.79;108915;1278;138866;-59
2022/04/05 05:28:41;;;;;;;16.50;10.70;;;;;;;1.43;64.53;98580.21;109012;1279;22406;-60
2022/04/05 05:31:10;;;;;;;15.00;10.20;;;;;;;1.46;64.66;98579.37;108784;1280;137621;-60
2022/04/05 05:33:38;;;;;;;14.00;9.70;;;;;;;1.50;64.65;98572.52;108991;1280;22424;-60
2022/04/05 05:36:07;;;;;;;16.40;11.30;;;;;;;1.56;64.47;98566.16;109016;1279;22441;-60
2022/04/05 05:38:36;;;;;;;16.90;10.60;;;;;;;1.61;64.36;98562.92;108900;1280;138732;-60
2022/04/05 05:41:04;;;;;;;21.20;9.80;;;;;;;1.66;64.40;98557.60;108987;1278;22389;-60
2022/04/05 05:43:33;;;;;;;21.20;10.20;;;;;;;1.69;64.32;98552.44;108871;1280;139095;-59
2022/04/05 05:46:03;;;;;;;16.70;10.90;;;;;;;1.72;64.18;98546.13;109036;1280;23085;-60
2022/04/05 05:48:47;;;;;;;12.90;9.20;;;;;;;1.74;64.04;98547.58;108989;1278;22545;-60
2022/04/05 05:51:16;;;;;;;17.90;10.90;;;;;;;1.75;63.78;98539.42;108843;1280;138360;-60
2022/04/05 05:53:45;;;;;;;17.90;10.20;;;;;;;1.77;63.93;98539.00;109027;1280;22513;-59
2022/04/05 05:56:14;;;;;;;15.10;10.10;;;;;;;1.78;63.66;98536.84;108900;1279;138459;-59
2022/04/05 05:58:43;;;;;;;16.90;10.40;;;;;;;1.81;63.59;98532.35;109012;1280;23502;-59
2022/04/05 06:01:11;;;;;;;16.70;11.00;;;;;;;1.84;63.61;98527.35;108902;1280;138392;-60
2022/04/05 06:03:39;;;;;;;14.60;10.20;;;;;;;1.88;63.47;98525.18;109004;1280;22468;-60
2022/04/05 06:06:08;;;;;;;15.50;10.20;;;;;;;1.91;63.58;98525.60;108978;1280;22470;-60
2022/04/05 06:08:36;;;;;;;18.50;10.10;;;;;;;1.96;63.35;98524.23;108902;1279;139123;-59
2022/04/05 06:11:07;;;;;;;14.40;10.30;;;;;;;2.00;63.46;98521.83;108898;1281;22244;-59
2022/04/05 06:13:35;;;;;;;14.60;9.90;;;;;;;2.04;63.42;98521.87;108922;1280;137429;-59
2022/04/05 06:16:04;;;;;;;14.30;8.90;;;;;;;2.06;63.11;98520.48;108991;1279;22531;-60
2022/04/05 06:18:50;;;;;;;18.90;10.20;;;;;;;2.09;62.94;98517.51;108997;1280;22547;-60
2022/04/05 06:21:21;;;;;;;18.10;10.00;;;;;;;2.11;62.89;98518.20;108902;1280;138638;-59
2022/04/05 06:23:57;;;;;;;16.50;10.50;;;;;;;2.14;62.93;98513.18;108899;1280;22244;-60
2022/04/05 06:26:26;;;;;;;18.20;9.30;;;;;;;2.17;62.90;98508.17;109215;1276;137162;-60
2022/04/05 06:28:56;;;;;;;14.20;9.90;;;;;;;2.18;62.54;98504.56;109298;1274;22450;-59
2022/04/05 06:31:25;;;;;;;16.80;10.20;;;;;;;2.20;62.65;98498.49;109215;1276;138939;-59
2022/04/05 06:33:53;;;;;;;16.60;10.70;;;;;;;2.24;62.40;98500.14;109189;1278;22623;-59
2022/04/05 06:36:21;;;;;;;16.00;11.50;;;;;;;2.28;62.46;98495.10;109315;1276;23085;-59
2022/04/05 06:38:50;;;;;;;16.70;11.30;;;;;;;2.31;62.25;98489.30;109210;1276;138304;-60
2022/04/05 06:41:22;;;;;;;15.20;10.60;;;;;;;2.36;62.24;98488.33;109318;1276;22415;-60
2022/04/05 06:43:50;;;;;;;15.20;10.30;;;;;;;2.44;62.24;98486.32;109237;1276;138384;-60
2022/04/05 06:46:18;;;;;;;18.60;12.30;;;;;;;2.53;61.95;98486.84;109184;1276;23510;-59
2022/04/05 06:48:46;;;;;;;17.40;10.50;;;;;;;2.63;61.98;98484.77;109188;1277;22523;-60
2022/04/05 06:51:15;;;;;;;15.60;9.70;;;;;;;2.73;61.70;98485.83;109097;1276;137900;-60
2022/04/05 06:53:43;;;;;;;15.30;10.60;;;;;;;2.84;61.43;98480.60;109347;1276;22434;-60
2022/04/05 06:56:11;;;;;;;14.20;9.60;;;;;;;2.93;60.84;98480.55;109128;1276;137480;-59
2022/04/05 06:58:39;;;;;;;16.90;11.40;;;;;;;3.00;60.41;98472.25;109353;1276;22428;-59
2022/04/05 07:01:09;;;;;;;15.10;10.50;;;;;;;3.06;60.41;98468.84;109104;1276;137801;-59
2022/04/05 07:03:38;;;;;;;19.80;10.70;;;;;;;3.12;60.07;98464.23;109351;1276;22650;-59
2022/04/05 07:06:07;;;;;;;14.30;10.00;;;;;;;3.18;59.73;98468.02;109340;1275;23177;-59
2022/04/05 07:08:36;;;;;;;15.20;9.90;;;;;;;3.23;59.30;98467.42;109221;1276;138936;-59
2022/04/05 07:11:13;;;;;;;16.50;11.00;;;;;;;3.27;59.58;98469.79;109305;1276;23288;-60
2022/04/05 07:13:41;;;;;;;14.00;10.30;;;;;;;3.35;59.65;98467.63;109242;1276;137727;-60
2022/04/05 07:16:09;;;;;;;14.50;10.00;;;;;;;3.43;59.39;98462.00;109183;1276;22543;-60
2022/04/05 07:18:37;;;;;;;13.90;10.00;;;;;;;3.53;58.83;98457.98;109280;1276;22458;-60
2022/04/05 07:21:26;;;;;;;20.20;10.10;;;;;;;3.61;58.42;98458.36;109089;1277;138097;-60
2022/04/05 07:23:59;;;;;;;17.60;10.60;;;;;;;3.68;57.98;98457.52;109302;1276;23654;-59
2022/04/05 07:26:28;;;;;;;14.70;9.60;;;;;;;3.74;57.22;98451.52;109209;1276;137500;-59
2022/04/05 07:28:56;;;;;;;16.00;9.80;;;;;;;3.77;56.94;98445.58;109337;1276;23562;-59
2022/04/05 07:31:27;;;;;;;16.20;8.70;;;;;;;3.81;57.05;98443.39;109234;1276;137547;-59
2022/04/05 07:33:56;;;;;;;16.40;10.30;;;;;;;3.85;56.47;98444.02;109315;1276;23288;-59
2022/04/05 07:36:24;;;;;;;14.30;9.80;;;;;;;3.87;56.27;98440.19;109322;1276;22491;-59
2022/04/05 07:38:52;;;;;;;14.20;9.00;;;;;;;3.89;56.38;98437.52;109142;1276;137271;-59
2022/04/05 07:41:20;;;;;;;12.60;8.90;;;;;;;3.94;56.27;98434.27;109317;1276;22510;-59
2022/04/05 07:43:49;;;;;;;12.50;9.50;;;;;;;4.01;56.14;98431.69;109206;1276;138227;-59
2022/04/05 07:46:17;;;;;;;15.20;8.90;;;;;;;4.06;56.02;98428.32;109298;1276;22362;-59
2022/04/05 07:48:47;;;;;;;14.50;9.30;;;;;;;4.12;55.53;98429.80;109243;1276;22583;-59
2022/04/05 07:51:15;;;;;;;17.90;9.80;;;;;;;4.15;55.15;98427.05;109071;1277;137083;-59
2022/04/05 07:53:44;;;;;;;14.40;9.30;;;;;;;4.15;54.48;98423.80;109347;1276;23071;-60
2022/04/05 07:56:13;;;;;;;12.30;8.10;;;;;;;4.16;54.32;98424.32;109202;1276;137786;-60
2022/04/05 07:58:43;;;;;;;16.40;9.60;;;;;;;4.17;54.71;98422.98;109311;1276;22497;-59
2022/04/05 08:01:11;;;;;;;11.40;8.60;;;;;;;4.18;54.57;98420.29;109145;1276;138672;-58
2022/04/05 08:03:39;;;;;;;15.40;9.60;;;;;;;4.16;54.14;98416.19;109296;1276;22562;-59
2022/04/05 08:06:08;;;;;;;14.20;9.10;;;;;;;4.17;54.38;98411.39;109336;1276;22439;-59
2022/04/05 08:08:36;;;;;;;33.20;14.50;;;;;;;4.17;54.33;98414.09;109080;1276;137805;-59
2022/04/05 08:11:24;;;;;;;23.10;13.30;;;;;;;4.16;54.09;98417.52;109314;1276;22448;-59
2022/04/05 08:13:53;;;;;;;19.80;11.70;;;;;;;4.15;54.13;98421.81;109135;1276;138799;-60
2022/04/05 08:16:28;;;;;;;18.00;10.20;;;;;;;4.16;54.11;98423.66;109190;1277;22407;-59
2022/04/05 08:18:57;;;;;;;17.50;10.40;;;;;;;4.16;53.98;98424.91;109236;1276;22463;-59
2022/04/05 08:21:26;;;;;;;13.40;9.50;;;;;;;4.16;54.15;98423.57;109103;1277;139494;-59
2022/04/05 08:23:55;;;;;;;16.30;10.20;;;;;;;4.15;54.34;98419.33;109096;1277;22304;-59
2022/04/05 08:26:24;;;;;;;15.00;8.80;;;;;;;4.15;54.40;98423.39;109117;1278;138126;-59
2022/04/05 08:28:55;;;;;;;14.50;8.60;;;;;;;4.20;54.96;98427.70;109205;1277;22282;-60
2022/04/05 08:31:24;;;;;;;14.90;9.30;;;;;;;4.24;54.67;98422.61;109087;1277;137623;-59
2022/04/05 08:33:53;;;;;;;14.20;9.20;;;;;;;4.28;53.61;98423.91;109134;1278;22446;-60
2022/04/05 08:36:22;;;;;;;13.80;9.10;;;;;;;4.29;53.59;98422.64;109094;1277;22441;-60
2022/04/05 08:38:51;;;;;;;17.70;9.30;;;;;;;4.29;53.98;98419.67;109081;1277;137288;-59
2022/04/05 08:41:19;;;;;;;12.50;9.10;;;;;;;4.30;54.26;98414.41;109131;1277;23651;-60
2022/04/05 08:43:49;;;;;;;15.30;9.20;;;;;;;4.28;55.30;98412.21;108995;1278;137487;-59
2022/04/05 08:46:20;;;;;;;12.30;8.70;;;;;;;4.24;55.63;98418.09;109127;1277;22407;-59
2022/04/05 08:48:48;;;;;;;14.30;8.90;;;;;;;4.21;56.00;98417.59;109080;1277;22418;-60
2022/04/05 08:51:17;;;;;;;18.10;9.10;;;;;;;4.18;56.51;98416.62;108986;1278;137514;-60
2022/04/05 08:53:46;;;;;;;16.10;9.70;;;;;;;4.13;56.64;98417.09;109051;1278;23405;-60
2022/04/05 08:56:15;;;;;;;15.30;10.00;;;;;;;4.11;57.07;98411.00;109034;1277;137274;-59
2022/04/05 08:58:43;;;;;;;13.80;8.90;;;;;;;4.08;57.98;98417.16;109134;1278;22342;-60
2022/04/05 09:01:11;;;;;;;14.90;9.30;;;;;;;4.05;58.25;98417.73;109010;1277;138354;-60
2022/04/05 09:03:40;;;;;;;14.80;9.00;;;;;;;4.01;58.71;98414.27;109114;1277;23078;-60
2022/04/05 09:06:28;;;;;;;25.20;11.10;;;;;;;3.97;58.85;98414.23;108949;1278;22458;-60
2022/04/05 09:09:10;;;;;;;18.00;11.00;;;;;;;3.97;59.37;98416.31;108997;1278;138243;-60
2022/04/05 09:11:44;;;;;;;16.30;9.70;;;;;;;3.97;59.68;98417.67;109036;1278;22479;-60
2022/04/05 09:14:23;;;;;;;20.60;10.80;;;;;;;3.96;60.09;98412.52;108989;1276;137572;-59
2022/04/05 09:17:05;;;;;;;18.60;9.80;;;;;;;3.94;60.75;98416.52;109123;1277;22459;-62
2022/04/05 09:19:46;;;;;;;17.70;10.00;;;;;;;3.96;61.21;98410.36;109018;1277;137767;-62
2022/04/05 09:22:35;;;;;;;18.00;9.80;;;;;;;4.00;61.46;98411.75;109118;1277;22294;-62
2022/04/05 09:25:05;;;;;;;15.70;9.90;;;;;;;4.04;61.98;98412.29;109055;1278;22599;-62
2022/04/05 09:27:47;;;;;;;17.90;10.60;;;;;;;4.05;61.92;98411.92;109024;1277;136965;-63
2022/04/05 09:30:23;;;;;;;15.30;9.70;;;;;;;4.06;62.48;98407.46;109053;1278;22474;-62
2022/04/05 09:32:54;;;;;;;19.40;11.50;;;;;;;4.08;62.94;98403.23;108998;1277;137727;-63
2022/04/05 09:35:43;;;;;;;15.00;9.80;;;;;;;4.12;63.59;98403.22;109128;1277;23443;-63
2022/04/05 09:38:17;;;;;;;24.90;11.90;;;;;;;4.18;64.32;98405.58;108992;1277;138187;-63
2022/04/05 09:40:52;;;;;;;23.40;12.70;;;;;;;4.24;65.38;98400.84;109047;1278;22456;-62
2022/04/05 09:43:31;;;;;;;14.50;10.50;;;;;;;4.33;65.68;98401.88;109060;1277;137644;-62
2022/04/05 09:46:02;;;;;;;15.90;10.30;;;;;;;4.41;65.26;98393.44;107516;1277;22567;-59
2022/04/05 09:48:34;;;;;;;13.70;9.80;;;;;;;4.49;65.67;98394.46;109116;1277;23322;-60
2022/04/05 09:51:14;;;;;;;16.20;9.70;;;;;;;4.57;65.61;98394.06;108978;1278;137476;-60
2022/04/05 09:53:51;;;;;;;12.70;9.50;;;;;;;4.60;65.73;98390.45;109044;1278;22459;-59
2022/04/05 09:56:25;;;;;;;16.20;10.20;;;;;;;4.64;65.88;98387.52;109035;1277;138779;-60
2022/04/05 09:59:04;;;;;;;13.50;9.80;;;;;;;4.67;66.34;98384.11;109121;1278;22469;-60
2022/04/05 10:01:35;;;;;;;14.70;9.90;;;;;;;4.71;66.44;98382.78;108917;1278;137642;-59
2022/04/05 10:04:08;;;;;;;13.00;9.50;;;;;;;4.73;66.59;98379.48;109063;1278;22863;-60
2022/04/05 10:06:42;;;;;;;13.70;9.40;;;;;;;4.77;66.30;98381.41;109115;1277;22384;-59
2022/04/05 10:09:11;;;;;;;10.10;8.60;;;;;;;4.82;66.03;98379.10;109002;1277;138134;-60
2022/04/05 10:11:42;;;;;;;12.90;9.50;;;;;;;4.85;65.99;98373.21;109155;1277;23132;-60
2022/04/05 10:14:12;;;;;;;12.30;9.50;;;;;;;4.87;65.92;98370.39;108921;1278;137161;-60
2022/04/05 10:16:41;;;;;;;13.80;9.40;;;;;;;4.91;66.38;98368.00;109071;1278;23188;-60
2022/04/05 10:19:10;;;;;;;13.20;9.30;;;;;;;4.96;66.17;98364.83;108899;1278;137213;-60
2022/04/05 10:21:43;;;;;;;12.20;9.60;;;;;;;4.96;65.79;98362.19;109171;1277;22605;-60
2022/04/05 10:24:12;;;;;;;11.70;9.20;;;;;;;4.95;66.46;98362.05;109152;1277;22460;-60
2022/04/05 10:26:42;;;;;;;12.30;8.50;;;;;;;4.94;66.65;98360.21;109079;1277;138846;-60
2022/04/05 10:29:15;;;;;;;10.80;8.20;;;;;;;4.92;66.55;98354.19;109111;1277;23270;-60
2022/04/05 10:32:28;;;;;;;12.50;9.10;;;;;;;4.91;66.46;98356.72;108985;1277;138257;-60
2022/04/05 10:35:05;;;;;;;10.70;8.20;;;;;;;4.87;66.23;98352.30;108633;1282;22575;-60
2022/04/05 10:37:37;;;;;;;14.50;9.60;;;;;;;4.83;66.37;98350.46;108514;1282;138495;-61
2022/04/05 10:40:07;;;;;;;14.20;9.20;;;;;;;4.82;66.06;98343.70;108643;1282;22488;-60
2022/04/05 10:42:40;;;;;;;27.60;14.10;;;;;;;4.81;66.06;98343.47;108512;1284;22427;-60
2022/04/05 10:45:33;;;;;;;17.60;12.00;;;;;;;4.79;65.32;98340.79;108521;1283;137352;-60
2022/04/05 10:48:18;;;;;;;13.60;9.10;;;;;;;4.74;64.94;98336.96;108634;1282;22500;-60
2022/04/05 10:51:01;;;;;;;13.20;8.80;;;;;;;4.71;64.79;98335.52;108475;1282;138899;-61
2022/04/05 10:53:33;;;;;;;12.30;8.90;;;;;;;4.70;64.29;98330.42;108623;1282;22578;-60
2022/04/05 10:56:04;;;;;;;15.80;9.30;;;;;;;4.70;63.37;98325.73;108501;1282;137293;-63
2022/04/05 10:58:34;;;;;;;12.40;8.50;;;;;;;4.70;63.06;98315.22;108638;1282;23294;-63
2022/04/05 11:01:14;;;;;;;10.60;7.60;;;;;;;4.73;62.21;98317.48;108630;1284;23483;-63
2022/04/05 11:03:46;;;;;;;13.10;7.90;;;;;;;4.76;62.01;98324.73;108508;1282;137016;-63
2022/04/05 11:06:14;;;;;;;13.90;8.90;;;;;;;4.77;61.61;98325.06;108568;1283;22417;-64
2022/04/05 11:08:45;;;;;;;10.00;7.70;;;;;;;4.78;61.52;98319.89;108485;1283;139056;-64
2022/04/05 11:11:13;;;;;;;15.30;9.00;;;;;;;4.78;61.51;98318.97;108769;1277;22424;-63
2022/04/05 11:13:45;;;;;;;13.10;8.50;;;;;;;4.81;61.62;98321.81;108859;1277;137038;-64
2022/04/05 11:16:15;;;;;;;14.20;9.10;;;;;;;4.81;61.70;98320.86;109179;1277;22432;-64
2022/04/05 11:18:45;;;;;;;9.90;7.70;;;;;;;4.80;61.67;98316.90;109004;1277;22395;-64
2022/04/05 11:21:14;;;;;;;12.60;8.10;;;;;;;4.79;61.83;98317.96;109152;1276;137976;-63
2022/04/05 11:23:44;;;;;;;9.80;7.10;;;;;;;4.77;61.71;98311.35;109281;1277;22460;-63
2022/04/05 11:26:35;;;;;;;10.30;7.20;;;;;;;4.76;62.13;98313.40;109191;1276;138148;-61
2022/04/05 11:29:19;;;;;;;12.60;8.40;;;;;;;4.77;62.18;98308.98;109278;1277;22449;-61
2022/04/05 11:31:49;;;;;;;11.10;6.90;;;;;;;4.79;62.43;98308.24;109145;1276;137752;-61
2022/04/05 11:34:38;;;;;;;11.20;7.40;;;;;;;4.81;62.36;98303.38;109247;1276;22439;-61
2022/04/05 11:37:08;;;;;;;;;;;;;;;4.84;62.71;98298.44;109293;1276;23269;-61